createdAt,value
2018-09-28T00:01:02.667Z,14.45
2018-09-28T00:03:05.834Z,14.51
2018-09-28T00:05:08.992Z,14.69
2018-09-28T00:07:12.124Z,14.49
2018-09-28T00:09:15.240Z,14.41
2018-09-28T00:11:18.323Z,14.31
2018-09-28T00:13:23.163Z,14.22
2018-09-28T00:15:26.321Z,14.23
2018-09-28T00:17:29.422Z,14.27
2018-09-28T00:19:32.489Z,14.32
2018-09-28T00:21:35.919Z,14.16
2018-09-28T00:23:38.964Z,14.37
2018-09-28T00:25:42.042Z,14.53
2018-09-28T00:27:45.186Z,14.51
2018-09-28T00:29:48.244Z,14.37
2018-09-28T00:31:53.129Z,14.20
2018-09-28T00:33:56.188Z,14.17
2018-09-28T00:35:59.385Z,14.06
2018-09-28T00:38:02.548Z,13.96
2018-09-28T00:40:05.683Z,13.97
2018-09-28T00:42:08.843Z,13.82
2018-09-28T00:44:11.912Z,13.86
2018-09-28T00:46:14.974Z,13.88
2018-09-28T00:48:18.106Z,13.74
2018-09-28T00:50:22.625Z,13.71
2018-09-28T00:52:25.711Z,13.64
2018-09-28T00:54:29.183Z,13.69
2018-09-28T00:56:32.269Z,13.69
2018-09-28T00:58:35.349Z,13.57
2018-09-28T01:00:38.711Z,13.59
2018-09-28T01:02:41.784Z,13.48
2018-09-28T01:04:44.819Z,13.49
2018-09-28T01:06:47.921Z,13.61
2018-09-28T01:08:52.048Z,13.44
2018-09-28T01:10:55.108Z,13.27
2018-09-28T01:12:58.351Z,13.27
2018-09-28T01:15:01.419Z,13.13
2018-09-28T01:17:04.500Z,13.28
2018-09-28T01:19:08.000Z,13.25
2018-09-28T01:21:11.081Z,13.18
2018-09-28T01:23:14.112Z,13.24
2018-09-28T01:25:17.222Z,13.18
2018-09-28T01:27:20.307Z,13.27
2018-09-28T01:29:24.565Z,13.25
2018-09-28T01:31:27.666Z,13.29
2018-09-28T01:33:30.695Z,13.26
2018-09-28T01:35:33.837Z,12.97
2018-09-28T01:37:36.961Z,12.88
2018-09-28T01:39:40.050Z,12.76
2018-09-28T01:41:43.119Z,12.77
2018-09-28T01:43:46.286Z,12.68
2018-09-28T01:45:49.335Z,12.72
2018-09-28T01:47:54.085Z,12.70
2018-09-28T01:49:57.187Z,12.63
2018-09-28T01:52:00.231Z,12.63
2018-09-28T01:54:03.389Z,12.46
2018-09-28T01:56:06.625Z,12.49
2018-09-28T01:58:09.677Z,12.43
2018-09-28T02:00:12.848Z,12.46
2018-09-28T02:02:15.888Z,12.36
2018-09-28T02:04:18.980Z,12.28
2018-09-28T02:06:24.304Z,12.21
2018-09-28T02:08:27.336Z,12.30
2018-09-28T02:10:30.443Z,12.27
2018-09-28T02:12:33.623Z,12.12
2018-09-28T02:14:36.643Z,12.04
2018-09-28T02:16:39.715Z,12.13
2018-09-28T02:18:42.803Z,12.13
2018-09-28T02:20:45.911Z,12.01
2018-09-28T02:22:48.979Z,12.17
2018-09-28T02:24:53.983Z,11.99
2018-09-28T02:26:57.068Z,12.16
2018-09-28T02:29:00.231Z,12.01
2018-09-28T02:31:03.324Z,11.98
2018-09-28T02:33:06.382Z,12.06
2018-09-28T02:35:09.418Z,11.97
2018-09-28T02:37:12.406Z,11.71
2018-09-28T02:39:15.397Z,11.74
2018-09-28T02:41:18.641Z,11.86
2018-09-28T02:43:23.343Z,11.92
2018-09-28T02:45:26.337Z,11.84
2018-09-28T02:47:29.371Z,11.83
2018-09-28T02:49:32.379Z,11.76
2018-09-28T02:51:35.691Z,11.85
2018-09-28T02:53:38.641Z,11.74
2018-09-28T02:55:41.615Z,11.73
2018-09-28T02:57:44.610Z,11.68
2018-09-28T02:59:47.560Z,11.79
2018-09-28T03:01:51.777Z,11.76
2018-09-28T03:03:54.850Z,11.70
2018-09-28T03:05:57.850Z,11.68
2018-09-28T03:08:00.839Z,11.75
2018-09-28T03:10:04.018Z,11.76
2018-09-28T03:12:07.068Z,11.65
2018-09-28T03:14:10.105Z,11.66
2018-09-28T03:16:13.106Z,11.64
2018-09-28T03:18:17.074Z,11.59
2018-09-28T03:20:20.382Z,11.60
2018-09-28T03:22:23.430Z,11.61
2018-09-28T03:24:26.878Z,11.55
2018-09-28T03:26:29.888Z,11.51
2018-09-28T03:28:32.851Z,11.58
2018-09-28T03:30:35.882Z,11.58
2018-09-28T03:32:38.987Z,11.69
2018-09-28T03:34:42.001Z,11.64
2018-09-28T03:36:45.041Z,11.78
2018-09-28T03:38:48.078Z,11.78
2018-09-28T03:40:52.521Z,11.65
2018-09-28T03:42:55.943Z,11.64
2018-09-28T03:44:58.977Z,11.53
2018-09-28T03:47:02.241Z,11.43
2018-09-28T03:49:05.539Z,11.46
2018-09-28T03:51:08.525Z,11.40
2018-09-28T03:53:11.559Z,11.40
2018-09-28T03:55:14.622Z,11.43
2018-09-28T03:57:17.633Z,11.40
2018-09-28T03:59:22.281Z,11.40
2018-09-28T04:01:25.439Z,11.33
2018-09-28T04:03:28.402Z,11.35
2018-09-28T04:05:31.411Z,11.48
2018-09-28T04:07:35.239Z,11.50
2018-09-28T04:09:38.202Z,11.33
2018-09-28T04:11:41.191Z,11.38
2018-09-28T04:13:44.265Z,11.42
2018-09-28T04:15:47.214Z,11.29
2018-09-28T04:17:50.239Z,11.29
2018-09-28T04:19:54.675Z,11.30
2018-09-28T04:21:59.925Z,11.33
2018-09-28T04:24:02.885Z,11.15
2018-09-28T04:26:05.920Z,11.21
2018-09-28T04:28:08.914Z,11.27
2018-09-28T04:30:11.886Z,11.17
2018-09-28T04:32:14.939Z,11.13
2018-09-28T04:34:18.259Z,11.21
2018-09-28T04:36:22.723Z,11.23
2018-09-28T04:38:25.768Z,11.18
2018-09-28T04:40:29.169Z,11.14
2018-09-28T04:42:32.139Z,11.04
2018-09-28T04:44:35.182Z,11.07
2018-09-28T04:46:38.303Z,11.09
2018-09-28T04:48:41.380Z,10.97
2018-09-28T04:50:44.379Z,11.00
2018-09-28T04:52:47.387Z,11.09
2018-09-28T04:54:50.374Z,11.07
2018-09-28T04:56:53.369Z,10.96
2018-09-28T04:58:56.434Z,10.99
2018-09-28T05:00:59.442Z,10.89
2018-09-28T05:03:02.464Z,10.89
2018-09-28T05:05:05.767Z,10.91
2018-09-28T05:07:08.871Z,10.87
2018-09-28T05:09:13.281Z,10.91
2018-09-28T05:11:16.302Z,10.85
2018-09-28T05:13:19.308Z,10.97
2018-09-28T05:15:23.983Z,10.91
2018-09-28T05:17:27.005Z,10.87
2018-09-28T05:19:30.116Z,10.97
2018-09-28T05:21:33.151Z,10.87
2018-09-28T05:23:36.125Z,10.99
2018-09-28T05:25:39.175Z,11.02
2018-09-28T05:27:42.151Z,11.01
2018-09-28T05:29:45.157Z,11.20
2018-09-28T05:31:48.210Z,11.42
2018-09-28T05:33:52.890Z,11.37
2018-09-28T05:35:55.907Z,11.33
2018-09-28T05:37:58.894Z,11.33
2018-09-28T05:40:01.965Z,11.40
2018-09-28T05:42:05.050Z,11.59
2018-09-28T05:44:08.058Z,11.53
2018-09-28T05:46:11.132Z,11.47
2018-09-28T05:48:14.131Z,11.54
2018-09-28T05:50:17.091Z,11.70
2018-09-28T05:52:20.097Z,11.73
2018-09-28T05:54:24.290Z,11.81
2018-09-28T05:56:27.327Z,11.95
2018-09-28T05:58:36.205Z,12.22
2018-09-28T06:00:45.145Z,12.32
2018-09-28T06:02:53.942Z,12.47
2018-09-28T06:05:02.739Z,12.63
2018-09-28T06:07:06.005Z,12.63
2018-09-28T06:09:10.378Z,12.60
2018-09-28T06:11:13.459Z,12.87
2018-09-28T06:13:17.738Z,12.82
2018-09-28T06:15:22.155Z,13.03
2018-09-28T06:17:25.175Z,12.96
2018-09-28T06:19:28.203Z,13.05
2018-09-28T06:21:31.228Z,12.93
2018-09-28T06:23:34.363Z,13.10
2018-09-28T06:25:37.365Z,13.22
2018-09-28T06:27:40.510Z,13.27
2018-09-28T06:29:43.577Z,13.31
2018-09-28T06:31:46.566Z,13.40
2018-09-28T06:33:49.548Z,13.37
2018-09-28T06:35:54.091Z,13.46
2018-09-28T06:37:57.150Z,13.48
2018-09-28T06:40:00.583Z,13.55
2018-09-28T06:42:03.650Z,13.52
2018-09-28T06:44:06.635Z,13.49
2018-09-28T06:46:10.098Z,13.67
2018-09-28T06:48:14.434Z,13.51
2018-09-28T06:50:17.522Z,13.57
2018-09-28T06:52:22.567Z,13.50
2018-09-28T06:54:25.581Z,13.69
2018-09-28T06:56:28.586Z,13.74
2018-09-28T06:58:31.685Z,13.86
2018-09-28T07:00:34.735Z,14.01
2018-09-28T07:02:38.066Z,14.08
2018-09-28T07:04:41.521Z,14.00
2018-09-28T07:06:44.595Z,14.03
2018-09-28T07:08:47.603Z,14.06
2018-09-28T07:10:52.402Z,14.03
2018-09-28T07:12:55.433Z,14.02
2018-09-28T07:14:58.490Z,14.20
2018-09-28T07:17:01.548Z,14.22
2018-09-28T07:19:04.956Z,14.24
2018-09-28T07:21:08.014Z,14.24
2018-09-28T07:23:11.467Z,14.29
2018-09-28T07:25:14.559Z,14.29
2018-09-28T07:27:17.575Z,14.44
2018-09-28T07:29:22.751Z,14.41
2018-09-28T07:31:25.849Z,14.43
2018-09-28T07:33:28.881Z,14.40
2018-09-28T07:35:31.923Z,14.42
2018-09-28T07:37:35.005Z,14.43
2018-09-28T07:39:38.053Z,14.49
2018-09-28T07:41:41.220Z,14.57
2018-09-28T07:43:44.228Z,14.74
2018-09-28T07:45:47.255Z,14.82
2018-09-28T07:47:50.505Z,14.90
2018-09-28T07:49:54.910Z,15.01
2018-09-28T07:51:57.885Z,15.08
2018-09-28T07:54:00.945Z,15.16
2018-09-28T07:56:03.920Z,15.32
2018-09-28T07:58:06.957Z,15.36
2018-09-28T08:00:10.301Z,15.33
2018-09-28T08:02:13.277Z,15.42
2018-09-28T08:04:16.260Z,15.45
2018-09-28T08:06:19.271Z,15.36
2018-09-28T08:08:23.409Z,15.33
2018-09-28T08:10:26.422Z,15.38
2018-09-28T08:12:29.482Z,15.37
2018-09-28T08:14:32.447Z,15.62
2018-09-28T08:16:35.516Z,15.98
2018-09-28T08:18:38.698Z,16.14
2018-09-28T08:20:41.663Z,16.29
2018-09-28T08:22:44.658Z,16.64
2018-09-28T08:24:47.769Z,16.95
2018-09-28T08:26:52.411Z,16.96
2018-09-28T08:28:55.369Z,17.01
2018-09-28T08:30:58.385Z,16.99
2018-09-28T08:33:01.395Z,16.94
2018-09-28T08:35:04.488Z,16.68
2018-09-28T08:37:07.524Z,16.49
2018-09-28T08:39:10.511Z,16.52
2018-09-28T08:41:13.542Z,16.38
2018-09-28T08:43:16.510Z,16.68
2018-09-28T08:45:19.563Z,17.01
2018-09-28T08:47:23.728Z,17.26
2018-09-28T08:49:26.739Z,17.54
2018-09-28T08:51:29.763Z,17.66
2018-09-28T08:53:32.790Z,17.85
2018-09-28T08:55:35.785Z,18.15
2018-09-28T08:57:38.784Z,18.28
2018-09-28T08:59:41.803Z,18.55
2018-09-28T09:01:44.803Z,18.84
2018-09-28T09:03:47.839Z,18.83
2018-09-28T09:05:52.610Z,18.49
2018-09-28T09:07:55.617Z,18.53
2018-09-28T09:09:58.656Z,18.23
2018-09-28T09:12:01.626Z,18.14
2018-09-28T09:14:04.655Z,18.33
2018-09-28T09:16:07.866Z,18.42
2018-09-28T09:18:11.052Z,18.58
2018-09-28T09:20:13.916Z,18.46
2018-09-28T09:22:16.903Z,18.42
2018-09-28T09:24:19.917Z,18.67
2018-09-28T09:26:24.687Z,18.72
2018-09-28T09:28:28.015Z,18.95
2018-09-28T09:30:31.039Z,19.11
2018-09-28T09:32:34.042Z,19.04
2018-09-28T09:34:37.048Z,19.18
2018-09-28T09:36:40.104Z,19.34
2018-09-28T09:38:43.104Z,19.52
2018-09-28T09:40:46.174Z,19.78
2018-09-28T09:42:49.170Z,19.98
2018-09-28T09:44:53.566Z,20.25
2018-09-28T09:46:56.647Z,20.26
2018-09-28T09:48:59.644Z,20.04
2018-09-28T09:51:02.675Z,19.67
2018-09-28T09:53:07.004Z,19.12
2018-09-28T09:55:10.034Z,19.24
2018-09-28T09:57:13.418Z,19.45
2018-09-28T09:59:16.429Z,19.35
2018-09-28T10:01:25.111Z,19.49
2018-09-28T10:03:34.019Z,19.10
2018-09-28T10:05:37.404Z,19.31
2018-09-28T10:07:40.671Z,19.49
2018-09-28T10:09:43.796Z,19.68
2018-09-28T10:11:46.822Z,19.58
2018-09-28T10:13:49.971Z,19.42
2018-09-28T10:15:54.668Z,19.11
2018-09-28T10:17:57.686Z,19.09
2018-09-28T10:20:00.730Z,19.33
2018-09-28T10:22:03.812Z,19.13
2018-09-28T10:24:06.917Z,19.05
2018-09-28T10:26:10.167Z,18.96
2018-09-28T10:28:13.233Z,18.88
2018-09-28T10:30:16.215Z,19.12
2018-09-28T10:32:19.254Z,19.00
2018-09-28T10:34:24.045Z,19.16
2018-09-28T10:36:26.961Z,18.95
2018-09-28T10:38:30.009Z,19.03
2018-09-28T10:40:33.094Z,19.17
2018-09-28T10:42:36.695Z,19.22
2018-09-28T10:44:39.757Z,19.24
2018-09-28T10:46:42.877Z,18.84
2018-09-28T10:48:46.405Z,18.55
2018-09-28T10:50:52.177Z,18.67
2018-09-28T10:52:56.081Z,18.50
2018-09-28T10:54:59.192Z,18.61
2018-09-28T10:57:02.213Z,18.89
2018-09-28T10:59:05.568Z,19.08
2018-09-28T11:01:08.944Z,18.89
2018-09-28T11:03:11.972Z,18.42
2018-09-28T11:05:14.893Z,18.77
2018-09-28T11:07:17.921Z,18.87
2018-09-28T11:09:22.045Z,19.03
2018-09-28T11:11:25.063Z,19.31
2018-09-28T11:13:28.425Z,19.23
2018-09-28T11:15:31.480Z,19.47
2018-09-28T11:17:34.472Z,19.77
2018-09-28T11:19:37.514Z,19.77
2018-09-28T11:21:40.571Z,19.62
2018-09-28T11:23:43.726Z,19.73
2018-09-28T11:25:46.769Z,19.58
2018-09-28T11:27:49.931Z,19.68
2018-09-28T11:29:54.216Z,19.55
2018-09-28T11:31:57.269Z,19.55
2018-09-28T11:34:00.340Z,19.71
2018-09-28T11:36:03.360Z,20.12
2018-09-28T11:38:06.372Z,20.39
2018-09-28T11:40:09.438Z,20.33
2018-09-28T11:42:12.724Z,20.74
2018-09-28T11:44:15.849Z,20.69
2018-09-28T11:46:18.829Z,20.54
2018-09-28T11:48:23.930Z,19.82
2018-09-28T11:50:26.969Z,20.32
2018-09-28T11:52:30.021Z,20.34
2018-09-28T11:54:33.383Z,20.39
2018-09-28T11:56:36.372Z,20.57
2018-09-28T11:58:39.385Z,20.27
2018-09-28T12:00:42.702Z,19.89
2018-09-28T12:02:45.704Z,19.48
2018-09-28T12:04:48.713Z,19.65
2018-09-28T12:06:53.432Z,20.10
2018-09-28T12:08:56.371Z,20.12
2018-09-28T12:10:59.384Z,19.82
2018-09-28T12:13:02.413Z,19.76
2018-09-28T12:15:05.517Z,19.55
2018-09-28T12:17:08.509Z,19.53
2018-09-28T12:19:11.479Z,19.14
2018-09-28T12:21:14.476Z,19.33
2018-09-28T12:23:17.539Z,19.84
2018-09-28T12:25:20.516Z,19.91
2018-09-28T12:27:24.825Z,20.40
2018-09-28T12:29:27.940Z,20.40
2018-09-28T12:31:30.950Z,20.31
2018-09-28T12:33:34.124Z,19.42
2018-09-28T12:35:37.137Z,19.31
2018-09-28T12:37:40.156Z,19.95
2018-09-28T12:39:43.323Z,20.41
2018-09-28T12:41:46.250Z,20.41
2018-09-28T12:43:49.230Z,20.88
2018-09-28T12:45:53.924Z,20.60
2018-09-28T12:47:57.006Z,20.07
2018-09-28T12:50:00.036Z,19.87
2018-09-28T12:52:03.125Z,19.93
2018-09-28T12:54:06.262Z,20.46
2018-09-28T12:56:09.293Z,20.66
2018-09-28T12:58:12.348Z,20.85
2018-09-28T13:00:15.412Z,20.88
2018-09-28T13:02:18.453Z,20.91
2018-09-28T13:04:23.171Z,21.31
2018-09-28T13:06:26.264Z,21.53
2018-09-28T13:08:29.357Z,21.70
2018-09-28T13:10:32.707Z,21.88
2018-09-28T13:12:35.769Z,21.99
2018-09-28T13:14:38.889Z,21.36
2018-09-28T13:16:41.895Z,21.62
2018-09-28T13:18:44.926Z,21.67
2018-09-28T13:20:48.014Z,21.17
2018-09-28T13:22:52.554Z,20.68
2018-09-28T13:24:55.567Z,20.64
2018-09-28T13:26:58.701Z,21.01
2018-09-28T13:29:01.811Z,20.38
2018-09-28T13:31:04.919Z,20.71
2018-09-28T13:33:07.885Z,20.91
2018-09-28T13:35:10.909Z,20.89
2018-09-28T13:37:13.956Z,21.09
2018-09-28T13:39:16.982Z,21.08
2018-09-28T13:41:19.993Z,21.13
2018-09-28T13:43:24.572Z,21.34
2018-09-28T13:45:27.649Z,21.20
2018-09-28T13:47:30.601Z,20.48
2018-09-28T13:49:33.618Z,20.15
2018-09-28T13:51:36.663Z,20.97
2018-09-28T13:53:39.652Z,21.11
2018-09-28T13:55:42.949Z,21.40
2018-09-28T13:57:45.956Z,21.42
2018-09-28T13:59:48.940Z,21.64
2018-09-28T14:01:53.168Z,21.73
2018-09-28T14:03:56.178Z,21.53
2018-09-28T14:05:59.204Z,21.11
2018-09-28T14:08:02.585Z,21.25
2018-09-28T14:10:05.622Z,21.27
2018-09-28T14:12:08.752Z,21.90
2018-09-28T14:14:12.075Z,21.43
2018-09-28T14:16:15.165Z,21.29
2018-09-28T14:18:18.233Z,20.76
2018-09-28T14:20:22.858Z,20.37
2018-09-28T14:22:25.979Z,20.12
2018-09-28T14:24:28.936Z,19.74
2018-09-28T14:26:32.172Z,19.76
2018-09-28T14:28:35.292Z,19.52
2018-09-28T14:30:38.228Z,19.58
2018-09-28T14:32:41.331Z,19.39
2018-09-28T14:34:44.449Z,19.19
2018-09-28T14:36:47.457Z,19.31
2018-09-28T14:38:50.421Z,19.59
2018-09-28T14:40:53.469Z,19.89
2018-09-28T14:42:56.488Z,19.76
2018-09-28T14:44:59.582Z,20.05
2018-09-28T14:47:02.573Z,19.88
2018-09-28T14:49:05.723Z,20.33
2018-09-28T14:51:08.745Z,20.35
2018-09-28T14:53:11.723Z,20.83
2018-09-28T14:55:14.765Z,21.08
2018-09-28T14:57:17.975Z,20.91
2018-09-28T14:59:22.089Z,20.73
2018-09-28T15:01:25.282Z,20.37
2018-09-28T15:03:28.130Z,20.07
2018-09-28T15:05:31.137Z,19.65
2018-09-28T15:07:34.157Z,19.73
2018-09-28T15:09:37.220Z,19.84
2018-09-28T15:11:40.333Z,19.90
2018-09-28T15:13:43.458Z,19.91
2018-09-28T15:15:46.468Z,19.91
2018-09-28T15:17:49.495Z,19.70
2018-09-28T15:19:53.851Z,19.81
2018-09-28T15:21:56.820Z,19.89
2018-09-28T15:23:59.850Z,19.51
2018-09-28T15:26:02.857Z,19.79
2018-09-28T15:28:05.841Z,19.60
2018-09-28T15:30:08.993Z,19.66
2018-09-28T15:32:12.005Z,19.27
2018-09-28T15:34:14.995Z,19.10
2018-09-28T15:36:18.063Z,18.71
2018-09-28T15:38:22.636Z,18.75
2018-09-28T15:40:25.630Z,18.51
2018-09-28T15:42:28.961Z,18.57
2018-09-28T15:44:31.986Z,18.21
2018-09-28T15:46:34.992Z,18.01
2018-09-28T15:48:38.128Z,18.24
2018-09-28T15:50:41.233Z,18.56
2018-09-28T15:52:44.264Z,18.05
2018-09-28T15:54:47.355Z,18.83
2018-09-28T15:56:50.394Z,18.61
2018-09-28T15:58:55.020Z,18.42
2018-09-28T16:00:58.064Z,18.78
2018-09-28T16:03:01.080Z,18.40
2018-09-28T16:05:04.279Z,18.10
2018-09-28T16:07:07.576Z,17.55
2018-09-28T16:09:10.580Z,17.52
2018-09-28T16:11:14.491Z,17.37
2018-09-28T16:13:17.532Z,17.30
2018-09-28T16:15:20.497Z,17.34
2018-09-28T16:17:25.386Z,17.18
2018-09-28T16:19:28.414Z,17.11
2018-09-28T16:21:31.409Z,17.12
2018-09-28T16:23:34.483Z,16.87
2018-09-28T16:25:37.436Z,16.80
2018-09-28T16:27:40.404Z,16.71
2018-09-28T16:29:43.420Z,16.68
2018-09-28T16:31:46.404Z,16.68
2018-09-28T16:33:49.443Z,16.47
2018-09-28T16:35:53.772Z,16.33
2018-09-28T16:37:56.796Z,16.30
2018-09-28T16:39:59.834Z,16.23
2018-09-28T16:42:02.840Z,15.96
2018-09-28T16:44:06.172Z,16.14
2018-09-28T16:46:09.547Z,15.99
2018-09-28T16:48:12.578Z,15.91
2018-09-28T16:50:15.578Z,15.94
2018-09-28T16:52:18.606Z,15.83
2018-09-28T16:54:23.172Z,15.70
2018-09-28T16:56:26.267Z,15.80
2018-09-28T16:58:29.315Z,15.75
2018-09-28T17:00:32.269Z,15.65
2018-09-28T17:02:35.285Z,15.68
2018-09-28T17:04:38.306Z,15.66
2018-09-28T17:06:41.706Z,15.46
2018-09-28T17:08:44.731Z,15.41
2018-09-28T17:10:47.711Z,15.34
2018-09-28T17:12:52.667Z,15.24
2018-09-28T17:14:55.702Z,15.03
2018-09-28T17:16:58.681Z,15.11
2018-09-28T17:19:01.853Z,15.12
2018-09-28T17:21:04.841Z,14.96
2018-09-28T17:23:07.855Z,15.02
2018-09-28T17:25:10.893Z,14.85
2018-09-28T17:27:13.927Z,14.83
2018-09-28T17:29:16.933Z,14.76
2018-09-28T17:31:19.964Z,14.62
2018-09-28T17:33:24.241Z,14.59
2018-09-28T17:35:27.271Z,14.43
2018-09-28T17:37:30.296Z,14.47
2018-09-28T17:39:33.325Z,14.25
2018-09-28T17:41:36.696Z,14.06
2018-09-28T17:43:39.696Z,14.17
2018-09-28T17:45:42.710Z,14.21
2018-09-28T17:47:45.740Z,14.19
2018-09-28T17:49:48.732Z,14.20
2018-09-28T17:51:53.496Z,14.15
2018-09-28T17:53:56.544Z,14.07
2018-09-28T17:55:59.592Z,13.98
2018-09-28T17:58:02.577Z,13.87
2018-09-28T18:00:05.972Z,13.93
2018-09-28T18:02:08.992Z,13.84
2018-09-28T18:04:11.984Z,13.80
2018-09-28T18:06:15.017Z,13.57
2018-09-28T18:08:18.047Z,13.52
2018-09-28T18:10:22.842Z,13.51
2018-09-28T18:12:25.861Z,13.25
2018-09-28T18:14:28.865Z,13.33
2018-09-28T18:16:31.932Z,13.31
2018-09-28T18:18:34.974Z,13.22
2018-09-28T18:20:37.957Z,13.16
2018-09-28T18:22:41.080Z,13.16
2018-09-28T18:24:44.440Z,13.08
2018-09-28T18:26:47.416Z,13.13
2018-09-28T18:28:50.436Z,12.99
2018-09-28T18:30:53.593Z,12.91
2018-09-28T18:32:56.640Z,12.81
2018-09-28T18:34:59.668Z,12.73
2018-09-28T18:37:02.790Z,12.63
2018-09-28T18:39:08.165Z,12.51
2018-09-28T18:41:11.194Z,12.39
2018-09-28T18:43:14.222Z,12.39
2018-09-28T18:45:17.267Z,12.25
2018-09-28T18:47:20.250Z,12.19
2018-09-28T18:49:24.827Z,12.13
2018-09-28T18:51:28.201Z,12.37
2018-09-28T18:53:31.254Z,12.25
2018-09-28T18:55:34.252Z,12.09
2018-09-28T18:57:37.329Z,12.06
2018-09-28T18:59:40.473Z,11.76
2018-09-28T19:01:43.428Z,11.63
2018-09-28T19:03:46.511Z,11.66
2018-09-28T19:05:49.547Z,11.52
2018-09-28T19:07:53.641Z,11.47
2018-09-28T19:09:56.641Z,11.65
2018-09-28T19:11:59.617Z,11.61
2018-09-28T19:14:02.634Z,11.54
2018-09-28T19:16:05.717Z,11.24
2018-09-28T19:18:08.961Z,10.98
2018-09-28T19:20:11.974Z,11.09
2018-09-28T19:22:14.976Z,11.08
2018-09-28T19:24:18.026Z,11.10
2018-09-28T19:26:22.819Z,10.94
2018-09-28T19:28:25.861Z,10.99
2018-09-28T19:30:28.884Z,10.77
2018-09-28T19:32:31.931Z,10.68
2018-09-28T19:34:34.948Z,10.66
2018-09-28T19:36:37.944Z,10.63
2018-09-28T19:38:40.997Z,10.73
2018-09-28T19:40:43.998Z,10.76
2018-09-28T19:42:46.972Z,10.81
2018-09-28T19:44:49.980Z,10.70
2018-09-28T19:46:54.900Z,10.42
2018-09-28T19:48:57.880Z,10.35
2018-09-28T19:51:00.881Z,10.38
2018-09-28T19:53:03.893Z,10.30
2018-09-28T19:55:07.030Z,10.17
2018-09-28T19:57:10.126Z,10.22
2018-09-28T19:59:13.433Z,10.17
2018-09-28T20:01:16.477Z,10.27
2018-09-28T20:03:19.582Z,10.27
2018-09-28T20:05:23.976Z,10.31
2018-09-28T20:07:26.992Z,10.22
2018-09-28T20:09:30.024Z,10.19
2018-09-28T20:11:33.061Z,10.03
2018-09-28T20:13:36.092Z,9.91
2018-09-28T20:15:39.163Z,9.76
2018-09-28T20:17:42.286Z,9.64
2018-09-28T20:19:45.285Z,9.63
2018-09-28T20:21:48.267Z,9.53
2018-09-28T20:23:53.013Z,9.49
2018-09-28T20:25:56.176Z,9.57
2018-09-28T20:27:59.130Z,9.53
2018-09-28T20:30:02.202Z,9.51
2018-09-28T20:32:05.550Z,9.46
2018-09-28T20:34:08.533Z,9.58
2018-09-28T20:36:11.560Z,9.64
2018-09-28T20:38:14.712Z,9.49
2018-09-28T20:40:17.754Z,9.41
2018-09-28T20:42:22.722Z,9.20
2018-09-28T20:44:25.773Z,9.17
2018-09-28T20:46:28.807Z,9.07
2018-09-28T20:48:31.789Z,9.18
2018-09-28T20:50:34.775Z,9.03
2018-09-28T20:52:37.847Z,9.06
2018-09-28T20:54:41.162Z,8.89
2018-09-28T20:56:44.208Z,9.00
2018-09-28T20:58:47.326Z,8.89
2018-09-28T21:00:50.381Z,8.96
2018-09-28T21:02:54.458Z,8.27
2018-09-28T21:04:57.752Z,8.75
2018-09-28T21:07:00.780Z,8.68
2018-09-28T21:09:06.459Z,8.68
2018-09-28T21:11:09.467Z,8.70
2018-09-28T21:13:12.537Z,8.75
2018-09-28T21:15:15.595Z,8.59
2018-09-28T21:17:18.627Z,8.52
2018-09-28T21:19:23.053Z,8.40
2018-09-28T21:21:26.065Z,8.25
2018-09-28T21:23:29.096Z,8.47
2018-09-28T21:25:32.078Z,8.54
2018-09-28T21:27:35.097Z,8.58
2018-09-28T21:29:38.153Z,8.59
2018-09-28T21:31:41.541Z,8.57
2018-09-28T21:33:44.521Z,8.37
2018-09-28T21:35:47.553Z,8.17
2018-09-28T21:37:52.028Z,8.08
2018-09-28T21:39:54.999Z,8.15
2018-09-28T21:41:58.628Z,7.98
2018-09-28T21:44:01.652Z,7.96
2018-09-28T21:46:04.682Z,8.01
2018-09-28T21:48:07.645Z,7.99
2018-09-28T21:50:10.668Z,7.99
2018-09-28T21:52:13.701Z,7.87
2018-09-28T21:54:16.678Z,7.82
2018-09-28T21:56:19.719Z,7.72
2018-09-28T21:58:24.312Z,7.65
2018-09-28T22:00:27.419Z,7.65
2018-09-28T22:02:30.488Z,7.60
2018-09-28T22:04:33.547Z,7.55
2018-09-28T22:06:36.545Z,7.60
2018-09-28T22:08:39.532Z,7.57
2018-09-28T22:10:42.577Z,7.66
2018-09-28T22:12:45.595Z,7.77
2018-09-28T22:14:48.579Z,7.68
2018-09-28T22:16:52.884Z,7.78
2018-09-28T22:18:55.943Z,7.75
2018-09-28T22:20:58.965Z,7.69
2018-09-28T22:23:01.987Z,7.62
2018-09-28T22:25:05.155Z,7.64
2018-09-28T22:27:09.885Z,7.61
2018-09-28T22:29:13.511Z,7.64
2018-09-28T22:31:16.516Z,7.59
2018-09-28T22:33:19.525Z,7.56
2018-09-28T22:35:23.975Z,7.52
2018-09-28T22:37:26.978Z,7.51
2018-09-28T22:39:29.969Z,7.36
2018-09-28T22:41:33.011Z,7.29
2018-09-28T22:43:36.009Z,7.22
2018-09-28T22:45:39.032Z,7.14
2018-09-28T22:47:42.083Z,6.95
2018-09-28T22:49:45.113Z,6.89
2018-09-28T22:51:48.133Z,6.91
2018-09-28T22:53:53.623Z,6.93
2018-09-28T22:55:57.301Z,6.91
2018-09-28T22:58:00.337Z,6.88
2018-09-28T23:00:03.480Z,6.80
2018-09-28T23:02:06.533Z,6.80
2018-09-28T23:04:10.566Z,6.84
2018-09-28T23:06:13.635Z,6.80
2018-09-28T23:08:16.671Z,6.88
2018-09-28T23:10:19.708Z,6.83
2018-09-28T23:12:24.307Z,6.87
2018-09-28T23:14:27.340Z,6.93
2018-09-28T23:16:30.656Z,7.13
2018-09-28T23:18:33.692Z,6.94
2018-09-28T23:20:36.693Z,7.00
2018-09-28T23:22:39.785Z,6.98
2018-09-28T23:24:42.765Z,7.05
2018-09-28T23:26:45.799Z,6.90
2018-09-28T23:28:48.849Z,6.95
2018-09-28T23:30:53.761Z,7.04
2018-09-28T23:32:56.782Z,7.07
2018-09-28T23:34:59.843Z,6.96
2018-09-28T23:37:03.076Z,6.94
2018-09-28T23:39:08.233Z,6.88
2018-09-28T23:41:11.556Z,6.86
2018-09-28T23:43:14.555Z,6.76
2018-09-28T23:45:17.587Z,6.77
2018-09-28T23:47:22.343Z,6.77
2018-09-28T23:49:25.340Z,6.72
2018-09-28T23:51:28.357Z,6.73
2018-09-28T23:53:31.363Z,6.66
2018-09-28T23:55:34.394Z,6.69
2018-09-28T23:57:37.437Z,6.64
2018-09-28T23:59:40.459Z,6.62
